Time;durP1;ratioP1;P1;durP2;ratioP2;P2;SDS_P1;SDS_P2;PMS_P1;PMS_P2;Temp;Humidity;BMP_temperature;BMP_pressure;BME280_temperature;BME280_humidity;BME280_pressure;Samples;Min_cycle;Max_cycle;Signal;HPM_P1;HPM_P2
2022/08/14 00:00:45;;;;;;;;;;;;;;;;;;;;;
2022/08/14 00:03:28;;;;;;;10.27;8.05;;;21.00;99.90;;;;;;4995046;28;20047;-93
2022/08/14 00:05:56;;;;;;;11.55;8.75;;;21.00;99.90;;;;;;4982073;28;20046;-91
2022/08/14 00:08:22;;;;;;;11.13;7.93;;;20.90;99.90;;;;;;4975834;28;20477;-92
2022/08/14 00:10:48;;;;;;;11.50;8.43;;;20.90;99.90;;;;;;4972211;28;20121;-91
2022/08/14 00:13:15;;;;;;;10.23;7.88;;;20.80;99.90;;;;;;4978245;28;20131;-94
2022/08/14 00:15:43;;;;;;;10.65;8.52;;;20.80;99.90;;;;;;4993757;28;20038;-93
2022/08/14 00:18:10;;;;;;;11.00;8.52;;;20.70;99.90;;;;;;4979522;28;20046;-93
2022/08/14 00:20:40;;;;;;;11.40;8.38;;;20.70;99.90;;;;;;4978042;28;20034;-91
2022/08/14 00:23:10;;;;;;;11.05;8.57;;;20.60;99.90;;;;;;4991814;28;20051;-92
2022/08/14 00:25:36;;;;;;;11.32;8.57;;;20.70;99.90;;;;;;4965061;28;20507;-93
2022/08/14 00:28:03;;;;;;;12.30;9.23;;;20.70;99.90;;;;;;4972134;28;20050;-93
2022/08/14 00:30:28;;;;;;;11.27;8.63;;;20.70;99.90;;;;;;4985857;28;20121;-93
2022/08/14 00:32:56;;;;;;;11.20;8.95;;;20.60;99.90;;;;;;4979437;28;20073;-93
2022/08/14 00:35:22;;;;;;;9.50;7.78;;;20.70;99.90;;;;;;4975875;28;20042;-93
2022/08/14 00:37:48;;;;;;;11.43;8.70;;;20.70;99.90;;;;;;4995688;28;20193;-93
2022/08/14 00:40:17;;;;;;;10.55;8.80;;;20.60;99.90;;;;;;4996064;28;20098;-91
2022/08/14 00:42:46;;;;;;;10.45;8.55;;;20.60;99.90;;;;;;4977919;28;20199;-95
2022/08/14 00:45:13;;;;;;;11.90;9.05;;;20.60;99.90;;;;;;4984933;28;20042;-91
2022/08/14 00:47:40;;;;;;;11.55;8.38;;;20.40;99.90;;;;;;4997898;28;20041;-90
2022/08/14 00:50:13;;;;;;;12.85;9.70;;;20.50;99.90;;;;;;4985476;28;20030;-95
2022/08/14 00:52:47;;;;;;;11.55;8.95;;;20.30;99.90;;;;;;5001769;28;20077;-93
2022/08/14 00:55:30;;;;;;;10.82;9.40;;;20.40;99.90;;;;;;5003394;28;20047;-94
2022/08/14 01:00:53;;;;;;;11.40;9.00;;;20.30;99.90;;;;;;4983294;28;20066;-92
2022/08/14 01:03:23;;;;;;;12.20;9.35;;;20.30;99.90;;;;;;4991783;28;20049;-91
2022/08/14 01:05:52;;;;;;;11.25;9.70;;;20.30;99.90;;;;;;4995715;28;20121;-93
2022/08/14 01:08:24;;;;;;;9.93;8.93;;;20.30;99.90;;;;;;4979353;28;20066;-93
2022/08/14 01:11:19;;;;;;;11.95;9.32;;;20.20;99.90;;;;;;4992829;28;20430;-92
2022/08/14 01:13:47;;;;;;;12.73;9.63;;;20.20;99.90;;;;;;4980489;28;20053;-92
2022/08/14 01:16:19;;;;;;;12.68;9.73;;;20.10;99.90;;;;;;4973869;28;20046;-92
2022/08/14 01:21:38;;;;;;;11.13;9.90;;;20.00;99.90;;;;;;4995312;28;20101;-93
2022/08/14 01:24:14;;;;;;;11.38;9.40;;;20.00;99.90;;;;;;4994371;28;20050;-94
2022/08/14 01:26:41;;;;;;;11.63;9.43;;;20.00;99.90;;;;;;4997176;28;20054;-92
2022/08/14 01:29:07;;;;;;;11.20;9.68;;;20.00;99.90;;;;;;4993134;28;20039;-93
2022/08/14 01:31:45;;;;;;;11.32;9.90;;;20.00;99.90;;;;;;4997468;28;20050;-93
2022/08/14 01:34:11;;;;;;;11.65;10.30;;;19.80;99.90;;;;;;4980003;28;20042;-95
2022/08/14 01:36:37;;;;;;;11.60;10.07;;;20.00;99.90;;;;;;4998843;28;20051;-92
2022/08/14 01:39:40;;;;;;;11.32;9.68;;;19.90;99.90;;;;;;4982445;28;20476;-95
2022/08/14 01:42:18;;;;;;;12.75;10.10;;;20.00;99.90;;;;;;4995279;28;20125;-93
2022/08/14 01:44:56;;;;;;;10.98;9.50;;;19.90;99.90;;;;;;4980710;28;20046;-92
2022/08/14 01:47:22;;;;;;;12.73;10.27;;;20.00;99.90;;;;;;4996628;28;20475;-93
2022/08/14 01:49:54;;;;;;;11.80;10.60;;;20.00;99.90;;;;;;4979239;28;20101;-93
2022/08/14 01:52:21;;;;;;;12.70;10.63;;;19.90;99.90;;;;;;4997503;28;20082;-91
2022/08/14 01:55:00;;;;;;;13.07;10.90;;;19.90;99.90;;;;;;5001353;28;20054;-94
2022/08/14 01:57:26;;;;;;;12.43;10.70;;;19.90;99.90;;;;;;4979448;28;20479;-94
2022/08/14 01:59:55;;;;;;;12.10;10.63;;;19.90;99.90;;;;;;4978255;28;20054;-94
2022/08/14 02:02:21;;;;;;;11.73;10.50;;;19.80;99.90;;;;;;4977972;28;20046;-90
2022/08/14 02:04:47;;;;;;;11.60;10.18;;;19.80;99.90;;;;;;4993811;28;20054;-90
2022/08/14 02:07:13;;;;;;;13.85;10.65;;;19.80;99.90;;;;;;4972675;28;20043;-91
2022/08/14 02:09:44;;;;;;;12.68;10.82;;;19.70;99.90;;;;;;4974799;28;20110;-93
2022/08/14 02:12:10;;;;;;;12.00;10.68;;;19.70;99.90;;;;;;4984211;28;20050;-94
2022/08/14 02:14:35;;;;;;;11.98;10.77;;;19.70;99.90;;;;;;4979198;28;20049;-93
2022/08/14 02:17:01;;;;;;;12.13;10.82;;;19.70;99.90;;;;;;4977593;28;20053;-92
2022/08/14 02:19:29;;;;;;;12.30;11.00;;;19.70;99.90;;;;;;4998529;28;20117;-93
2022/08/14 02:21:57;;;;;;;13.13;10.80;;;19.70;99.90;;;;;;4984193;28;20049;-92
2022/08/14 02:24:27;;;;;;;13.60;10.20;;;19.60;99.90;;;;;;4980434;28;20047;-94
2022/08/14 02:26:55;;;;;;;12.55;11.30;;;19.70;99.90;;;;;;4995261;28;20061;-92
2022/08/14 02:29:26;;;;;;;12.43;10.88;;;19.70;99.90;;;;;;4979687;28;20518;-94
2022/08/14 02:31:54;;;;;;;;;;;19.70;99.90;;;;;;4981110;28;20038;-91
2022/08/14 02:34:31;;;;;;;14.88;11.50;;;19.50;99.90;;;;;;4981268;28;19926;-95
2022/08/14 02:37:04;;;;;;;12.10;10.70;;;19.50;99.90;;;;;;5000462;28;20042;-93
2022/08/14 02:39:45;;;;;;;11.55;10.35;;;19.40;99.90;;;;;;4998001;28;20070;-93
2022/08/14 02:42:16;;;;;;;11.85;10.50;;;19.50;99.90;;;;;;4979987;28;20038;-93
2022/08/14 02:44:45;;;;;;;12.80;11.45;;;19.50;99.90;;;;;;4982475;28;20050;-95
2022/08/14 02:47:11;;;;;;;12.65;11.05;;;19.50;99.90;;;;;;4981660;28;20047;-93
2022/08/14 02:49:42;;;;;;;13.15;11.25;;;19.50;99.90;;;;;;4979814;28;20420;-91
2022/08/14 02:52:09;;;;;;;13.65;11.60;;;19.50;99.90;;;;;;4993680;28;20046;-94
2022/08/14 02:54:40;;;;;;;13.23;11.43;;;19.50;99.90;;;;;;4997301;28;20104;-92
2022/08/14 02:57:06;;;;;;;12.88;11.57;;;19.50;99.90;;;;;;4994192;28;20057;-92
2022/08/14 02:59:34;;;;;;;13.10;11.55;;;19.40;99.90;;;;;;4983233;28;20046;-94
2022/08/14 03:02:00;;;;;;;12.93;11.43;;;19.40;99.90;;;;;;5014937;28;20046;-94
2022/08/14 03:04:27;;;;;;;13.30;11.55;;;19.40;99.90;;;;;;5000490;28;20062;-92
2022/08/14 03:06:53;;;;;;;16.50;12.07;;;19.40;99.90;;;;;;5004520;28;20050;-93
2022/08/14 03:09:22;;;;;;;13.25;11.85;;;19.40;99.90;;;;;;4995882;28;20042;-92
2022/08/14 03:11:48;;;;;;;13.07;11.55;;;19.40;99.90;;;;;;4975478;28;20077;-91
2022/08/14 03:14:14;;;;;;;13.57;12.15;;;19.30;99.90;;;;;;4976003;28;20042;-94
2022/08/14 03:16:40;;;;;;;13.40;12.00;;;19.30;99.90;;;;;;4992263;28;20054;-92
2022/08/14 03:19:07;;;;;;;13.52;12.13;;;19.30;99.90;;;;;;4976613;28;20050;-92
2022/08/14 03:21:45;;;;;;;14.15;12.32;;;19.30;99.90;;;;;;4977884;28;20078;-93
2022/08/14 03:24:17;;;;;;;14.40;12.10;;;19.30;99.90;;;;;;4997140;28;20046;-93
2022/08/14 03:27:02;;;;;;;13.52;12.13;;;19.30;99.90;;;;;;4997546;28;20209;-93
2022/08/14 03:29:30;;;;;;;12.82;11.45;;;19.20;99.90;;;;;;4997819;28;20049;-93
2022/08/14 03:31:56;;;;;;;13.85;12.25;;;19.20;99.90;;;;;;4981333;28;20073;-93
2022/08/14 03:34:22;;;;;;;13.55;12.15;;;19.20;99.90;;;;;;4987305;28;20050;-93
2022/08/14 03:36:56;;;;;;;14.07;12.20;;;19.20;99.90;;;;;;4992905;28;20097;-93
2022/08/14 03:39:32;;;;;;;13.70;12.38;;;19.20;99.90;;;;;;4994378;28;20042;-93
2022/08/14 03:41:58;;;;;;;13.52;12.15;;;19.20;99.90;;;;;;4995404;28;20050;-95
2022/08/14 03:44:24;;;;;;;13.23;11.90;;;19.20;99.90;;;;;;4984042;28;20110;-92
2022/08/14 03:46:50;;;;;;;13.57;12.18;;;19.20;99.90;;;;;;4999867;28;20057;-94
2022/08/14 03:49:22;;;;;;;13.80;12.40;;;19.10;99.90;;;;;;4992050;28;20050;-93
2022/08/14 03:51:48;;;;;;;15.95;12.73;;;19.10;99.90;;;;;;4973563;28;20026;-93
2022/08/14 03:54:14;;;;;;;14.15;12.73;;;19.10;99.90;;;;;;4999711;28;20046;-94
2022/08/14 03:56:43;;;;;;;14.57;12.82;;;19.10;99.90;;;;;;4981708;28;20073;-94
2022/08/14 03:59:10;;;;;;;15.70;12.15;;;19.10;99.90;;;;;;5005905;28;20488;-93
2022/08/14 04:01:38;;;;;;;14.10;12.50;;;19.10;99.90;;;;;;4987054;28;20173;-95
2022/08/14 04:04:05;;;;;;;16.23;12.15;;;19.00;99.90;;;;;;4999377;28;20436;-95
2022/08/14 04:06:36;;;;;;;15.50;12.45;;;19.10;99.90;;;;;;4984064;28;20043;-94
2022/08/14 04:09:06;;;;;;;16.20;12.68;;;19.00;99.90;;;;;;4998105;28;20189;-91
2022/08/14 04:11:34;;;;;;;15.13;12.07;;;18.90;99.90;;;;;;4990172;28;20046;-92
2022/08/14 04:14:00;;;;;;;14.13;12.73;;;19.00;99.90;;;;;;4995918;28;20081;-93
2022/08/14 04:16:26;;;;;;;15.15;13.55;;;19.00;99.90;;;;;;4990410;28;20050;-92
2022/08/14 04:18:54;;;;;;;14.60;12.98;;;18.90;99.90;;;;;;4989906;28;20132;-92
2022/08/14 04:21:23;;;;;;;13.52;12.23;;;19.00;99.90;;;;;;4988764;28;20050;-93
2022/08/14 04:23:51;;;;;;;15.23;12.95;;;19.00;99.90;;;;;;4989663;28;20043;-91
2022/08/14 04:26:20;;;;;;;14.75;12.73;;;18.90;99.90;;;;;;4991922;28;20049;-92
2022/08/14 04:28:48;;;;;;;13.45;12.05;;;18.90;99.90;;;;;;4990131;28;20046;-92
2022/08/14 04:31:14;;;;;;;14.02;12.45;;;19.00;99.90;;;;;;4975186;28;20046;-92
2022/08/14 04:33:40;;;;;;;14.25;12.75;;;19.00;99.90;;;;;;4990600;28;20058;-93
2022/08/14 04:36:07;;;;;;;15.25;12.00;;;19.00;99.90;;;;;;4973231;28;20038;-92
2022/08/14 04:44:18;;;;;;;;;;;19.00;99.90;;;;;;4916034;29;20616;-91
2022/08/14 04:48:11;;;;;;;13.65;11.50;;;18.90;99.90;;;;;;4914869;29;20013;-91
2022/08/14 04:49:30;;;;;;;13.90;12.32;;;19.00;99.90;;;;;;4925670;29;20585;-90
2022/08/14 04:51:55;;;;;;;15.00;12.70;;;19.10;99.90;;;;;;4932905;29;20051;-91
2022/08/14 04:54:23;;;;;;;16.23;12.05;;;19.20;99.90;;;;;;4936208;29;20047;-91
2022/08/14 04:56:48;;;;;;;16.65;12.13;;;19.20;99.90;;;;;;4922934;29;20043;-92
2022/08/14 04:59:14;;;;;;;13.40;11.27;;;19.30;99.90;;;;;;4938573;28;20055;-93
2022/08/14 05:01:43;;;;;;;13.73;11.88;;;19.40;99.90;;;;;;4954682;29;20456;-94
2022/08/14 05:04:11;;;;;;;13.45;11.98;;;19.40;99.90;;;;;;4952427;28;20027;-90
2022/08/14 05:06:37;;;;;;;13.43;11.95;;;19.50;99.90;;;;;;4960333;28;20043;-95
2022/08/14 05:09:04;;;;;;;13.50;12.02;;;19.50;99.90;;;;;;4940087;29;20055;-91
2022/08/14 05:11:36;;;;;;;15.38;12.30;;;19.60;99.90;;;;;;4940944;29;20078;-92
2022/08/14 05:14:03;;;;;;;17.90;11.68;;;19.70;99.90;;;;;;4961054;29;20071;-96
2022/08/14 05:16:30;;;;;;;15.00;12.30;;;19.70;99.90;;;;;;4936182;29;20047;-91
2022/08/14 05:18:56;;;;;;;14.75;12.65;;;19.80;99.90;;;;;;4977556;28;20046;-89
2022/08/14 05:21:23;;;;;;;14.52;12.00;;;19.80;99.90;;;;;;4993130;28;20096;-91
2022/08/14 05:23:50;;;;;;;14.00;11.95;;;19.90;99.90;;;;;;4990321;28;20043;-90
2022/08/14 05:26:16;;;;;;;12.82;11.27;;;20.00;99.90;;;;;;4988461;28;20042;-92
2022/08/14 05:28:44;;;;;;;12.10;10.90;;;20.10;99.90;;;;;;4970423;28;20129;-92
2022/08/14 05:31:13;;;;;;;12.43;11.10;;;20.10;99.90;;;;;;4967453;28;20054;-92
2022/08/14 05:33:39;;;;;;;11.85;10.48;;;20.20;99.90;;;;;;4990806;28;20046;-91
2022/08/14 05:36:08;;;;;;;12.02;10.73;;;20.30;99.90;;;;;;4986136;28;20141;-91
2022/08/14 05:38:39;;;;;;;12.77;11.10;;;20.30;99.90;;;;;;4991365;28;20053;-90
2022/08/14 05:41:08;;;;;;;11.95;10.75;;;20.50;99.90;;;;;;4972205;28;20086;-91
2022/08/14 05:43:35;;;;;;;13.13;10.63;;;20.40;99.90;;;;;;4976100;28;20113;-92
2022/08/14 05:46:00;;;;;;;12.27;11.07;;;20.50;99.90;;;;;;4972991;28;20391;-93
2022/08/14 05:48:27;;;;;;;11.63;10.43;;;20.50;99.90;;;;;;4985225;28;20358;-90
2022/08/14 05:50:54;;;;;;;11.30;10.10;;;20.60;99.90;;;;;;4980408;28;20046;-91
2022/08/14 05:53:25;;;;;;;15.07;11.27;;;20.50;99.90;;;;;;4970886;28;20479;-90
2022/08/14 05:55:51;;;;;;;12.80;11.25;;;20.70;99.90;;;;;;4977191;28;20065;-91
2022/08/14 05:58:18;;;;;;;12.27;10.50;;;20.80;99.90;;;;;;4987577;28;20050;-92
2022/08/14 06:00:46;;;;;;;12.35;10.43;;;20.90;99.90;;;;;;4955646;28;20059;-92
2022/08/14 06:03:15;;;;;;;13.07;10.45;;;20.90;99.90;;;;;;4978114;28;20050;-91
2022/08/14 06:05:45;;;;;;;12.05;10.75;;;21.00;99.90;;;;;;4992464;28;20109;-91
2022/08/14 06:08:24;;;;;;;12.95;10.38;;;21.10;99.90;;;;;;4965151;28;20388;-91
2022/08/14 06:10:52;;;;;;;12.57;10.95;;;21.20;99.90;;;;;;4981388;28;20175;-89
2022/08/14 06:13:18;;;;;;;12.73;10.38;;;21.20;99.90;;;;;;4979331;28;20202;-92
2022/08/14 06:15:45;;;;;;;12.73;10.20;;;21.30;99.90;;;;;;4957331;28;20051;-90
2022/08/14 06:18:10;;;;;;;11.98;10.52;;;21.50;99.90;;;;;;4965544;28;20046;-91
2022/08/14 06:20:37;;;;;;;12.52;11.23;;;21.60;99.90;;;;;;4991442;28;20108;-91
2022/08/14 06:23:03;;;;;;;11.90;10.70;;;21.70;99.90;;;;;;4990707;28;20073;-91
2022/08/14 06:25:30;;;;;;;13.15;11.30;;;21.80;99.90;;;;;;4991403;28;20542;-89
2022/08/14 06:27:56;;;;;;;12.05;10.70;;;22.00;99.90;;;;;;4985520;28;20034;-88
2022/08/14 06:30:26;;;;;;;12.27;10.98;;;22.10;99.90;;;;;;4990790;28;20038;-91
2022/08/14 06:32:52;;;;;;;11.57;9.93;;;22.30;99.90;;;;;;4968124;28;20070;-92
2022/08/14 06:35:19;;;;;;;12.93;11.20;;;22.30;99.90;;;;;;4970572;28;20129;-92
2022/08/14 06:37:59;;;;;;;12.63;10.50;;;22.40;99.90;;;;;;4976205;28;20069;-90
2022/08/14 06:40:33;;;;;;;11.77;10.07;;;22.40;99.90;;;;;;4987213;28;20503;-90
2022/08/14 06:43:10;;;;;;;10.98;9.85;;;22.50;99.90;;;;;;4990114;28;20034;-90
2022/08/14 06:45:38;;;;;;;12.50;9.75;;;22.50;99.90;;;;;;4974202;28;20133;-88
2022/08/14 06:48:12;;;;;;;11.60;9.80;;;22.60;99.90;;;;;;4973602;28;20522;-90
2022/08/14 06:50:37;;;;;;;10.82;9.70;;;22.70;99.90;;;;;;4991123;28;20042;-90
2022/08/14 06:53:04;;;;;;;10.65;9.55;;;22.80;99.90;;;;;;4989575;28;20100;-90
2022/08/14 06:55:34;;;;;;;11.68;9.55;;;22.90;99.90;;;;;;4975044;28;20050;-90
2022/08/14 06:58:00;;;;;;;10.98;9.63;;;22.90;99.90;;;;;;4973460;28;20042;-91
2022/08/14 07:00:27;;;;;;;10.65;8.80;;;22.90;99.90;;;;;;4968676;28;20067;-90
2022/08/14 07:05:45;;;;;;;10.85;9.52;;;23.10;99.90;;;;;;4995586;28;20472;-90
2022/08/14 07:08:17;;;;;;;10.15;9.05;;;23.20;99.90;;;;;;4973076;28;20394;-92
2022/08/14 07:10:49;;;;;;;10.75;9.00;;;23.20;99.90;;;;;;4964475;28;20057;-93
2022/08/14 07:13:17;;;;;;;11.98;9.23;;;23.40;99.90;;;;;;4987802;28;20042;-94
2022/08/14 07:15:45;;;;;;;11.32;9.73;;;23.30;99.90;;;;;;4978400;28;20192;-93
2022/08/14 07:18:12;;;;;;;9.82;8.82;;;23.50;99.90;;;;;;4975574;28;20052;-94
2022/08/14 07:20:39;;;;;;;13.05;9.30;;;23.70;99.90;;;;;;4961735;28;20034;-95
2022/08/14 07:23:07;;;;;;;12.50;9.00;;;23.80;99.90;;;;;;4987892;28;20050;-91
2022/08/14 07:25:34;;;;;;;11.82;8.77;;;23.80;99.90;;;;;;4987320;28;20063;-92
2022/08/14 07:28:00;;;;;;;10.80;9.35;;;23.90;99.90;;;;;;4979643;28;20057;-93
2022/08/14 07:30:25;;;;;;;9.95;8.55;;;24.00;99.90;;;;;;4992558;28;20042;-92
2022/08/14 07:32:51;;;;;;;11.10;9.00;;;24.10;99.90;;;;;;4973439;28;20053;-91
2022/08/14 07:35:19;;;;;;;10.73;8.82;;;24.10;99.90;;;;;;4985947;28;20049;-91
2022/08/14 07:37:48;;;;;;;10.45;9.10;;;24.20;99.90;;;;;;4987003;28;20046;-94
2022/08/14 07:40:16;;;;;;;10.05;8.82;;;24.20;99.90;;;;;;4987353;28;20046;-94
2022/08/14 07:42:42;;;;;;;9.85;8.48;;;24.40;99.90;;;;;;4985426;28;20058;-93
2022/08/14 07:45:08;;;;;;;11.35;8.50;;;24.30;99.90;;;;;;4988402;28;20132;-92
2022/08/14 07:47:39;;;;;;;12.15;8.68;;;24.50;99.90;;;;;;4989829;28;20046;-94
2022/08/14 07:50:15;;;;;;;10.80;8.60;;;24.70;99.90;;;;;;4985931;28;20141;-91
2022/08/14 07:52:42;;;;;;;9.40;8.40;;;24.80;99.90;;;;;;4988913;28;20097;-88
2022/08/14 07:55:11;;;;;;;10.18;8.40;;;24.80;99.90;;;;;;4989333;28;20050;-92
2022/08/14 07:57:39;;;;;;;11.13;8.70;;;24.90;99.90;;;;;;4971394;28;20043;-88
2022/08/14 08:00:16;;;;;;;10.63;8.15;;;24.90;99.90;;;;;;4989006;28;20136;-88
2022/08/14 08:02:44;;;;;;;9.52;8.23;;;24.90;99.90;;;;;;4988953;28;20568;-88
2022/08/14 08:05:11;;;;;;;9.40;8.27;;;25.00;99.90;;;;;;4973533;28;20059;-89
2022/08/14 08:07:38;;;;;;;10.25;8.68;;;25.00;99.90;;;;;;4976939;28;20042;-89
2022/08/14 08:10:33;;;;;;;12.40;8.75;;;25.00;99.90;;;;;;4971878;28;20337;-88
2022/08/14 08:13:04;;;;;;;10.35;8.15;;;25.10;99.90;;;;;;4987346;28;20469;-88
2022/08/14 08:15:34;;;;;;;10.30;8.18;;;25.20;99.90;;;;;;4989051;28;20046;-87
2022/08/14 08:18:03;;;;;;;10.00;8.15;;;25.30;99.90;;;;;;4989370;28;20101;-89
2022/08/14 08:20:34;;;;;;;9.85;8.13;;;25.40;99.90;;;;;;4990189;28;20403;-89
2022/08/14 08:23:00;;;;;;;;;;;25.40;99.90;;;;;;4978693;28;20408;-87
2022/08/14 08:25:29;;;;;;;9.88;8.27;;;25.30;99.90;;;;;;4972273;28;19921;-88
2022/08/14 08:28:08;;;;;;;11.30;8.55;;;25.50;99.90;;;;;;4987919;28;20042;-89
2022/08/14 08:30:39;;;;;;;9.60;7.63;;;25.60;99.90;;;;;;4972489;28;20077;-88
2022/08/14 08:33:06;;;;;;;9.73;7.93;;;25.70;99.90;;;;;;4971787;28;20061;-86
2022/08/14 08:35:34;;;;;;;9.65;7.90;;;25.70;99.90;;;;;;4984622;28;20488;-88
2022/08/14 08:38:16;;;;;;;10.60;7.70;;;25.70;99.90;;;;;;4970400;28;20120;-90
2022/08/14 08:40:47;;;;;;;10.55;8.15;;;25.80;99.90;;;;;;4969007;28;20224;-86
2022/08/14 08:43:42;;;;;;;8.63;7.43;;;25.90;99.90;;;;;;4968989;28;20512;-88
2022/08/14 08:46:13;;;;;;;9.40;7.90;;;25.90;99.90;;;;;;4961844;28;20187;-86
2022/08/14 08:48:47;;;;;;;9.82;8.07;;;26.00;99.90;;;;;;4989443;28;20039;-89
2022/08/14 08:51:28;;;;;;;8.75;7.75;;;26.00;99.90;;;;;;4989663;28;20059;-87
2022/08/14 08:54:03;;;;;;;10.38;7.57;;;26.00;99.90;;;;;;4986461;28;20047;-87
2022/08/14 08:56:44;;;;;;;10.50;8.05;;;26.10;99.90;;;;;;4986823;28;20057;-87
2022/08/14 08:59:20;;;;;;;;;;;26.10;99.90;;;;;;4972245;28;20046;-88
2022/08/14 09:01:48;;;;;;;9.80;7.53;;;26.10;99.90;;;;;;4971763;28;19928;-87
2022/08/14 09:04:13;;;;;;;8.75;7.43;;;26.20;99.90;;;;;;4977787;28;20047;-87
2022/08/14 09:06:44;;;;;;;10.45;7.88;;;26.30;99.90;;;;;;4969988;28;20099;-87
2022/08/14 09:09:25;;;;;;;10.27;7.53;;;26.30;99.90;;;;;;4970802;28;20047;-89
2022/08/14 09:11:53;;;;;;;8.75;7.43;;;26.40;99.90;;;;;;4972846;28;20052;-90
2022/08/14 09:14:24;;;;;;;10.00;7.43;;;26.40;99.90;;;;;;4988720;28;20133;-87
2022/08/14 09:16:50;;;;;;;9.30;7.40;;;26.50;99.90;;;;;;4988087;28;20050;-89
2022/08/14 09:19:17;;;;;;;10.32;7.43;;;26.50;99.90;;;;;;4972243;28;20081;-89
2022/08/14 09:21:43;;;;;;;10.23;8.05;;;26.50;99.90;;;;;;4988088;28;20043;-86
2022/08/14 09:24:09;;;;;;;8.73;7.50;;;26.60;99.90;;;;;;4986553;28;20042;-90
2022/08/14 09:26:36;;;;;;;9.23;7.82;;;26.60;99.90;;;;;;4988465;28;20447;-87
2022/08/14 09:29:03;;;;;;;9.20;7.68;;;26.70;99.90;;;;;;4987478;28;20093;-89
2022/08/14 09:31:31;;;;;;;11.60;7.70;;;26.70;99.90;;;;;;4985223;28;20134;-88
2022/08/14 09:34:17;;;;;;;9.65;7.63;;;26.70;99.90;;;;;;4986749;28;20093;-88
2022/08/14 09:36:50;;;;;;;8.95;7.57;;;26.70;99.90;;;;;;4989235;28;20081;-89
2022/08/14 09:39:38;;;;;;;8.88;7.80;;;26.70;99.90;;;;;;4987488;28;20046;-87
2022/08/14 09:42:43;;;;;;;10.40;8.10;;;26.70;99.90;;;;;;4992276;28;20057;-88
2022/08/14 09:45:14;;;;;;;10.20;7.97;;;26.80;99.90;;;;;;4991565;28;20336;-88
2022/08/14 09:47:44;;;;;;;9.32;7.60;;;26.70;99.90;;;;;;4976602;28;20101;-93
2022/08/14 09:50:32;;;;;;;9.27;7.47;;;26.80;99.90;;;;;;4993062;28;20053;-90
2022/08/14 09:53:06;;;;;;;8.73;7.28;;;26.80;99.90;;;;;;4975953;28;20420;-93
2022/08/14 09:55:34;;;;;;;9.52;7.68;;;26.80;99.90;;;;;;4974045;28;20049;-94
2022/08/14 09:58:17;;;;;;;9.30;7.38;;;26.90;99.90;;;;;;4990880;28;20039;-93
2022/08/14 10:00:45;;;;;;;9.90;7.60;;;26.90;99.90;;;;;;4973980;28;20067;-92
2022/08/14 10:03:11;;;;;;;9.00;7.60;;;26.90;99.90;;;;;;4979151;28;20042;-93
2022/08/14 10:05:37;;;;;;;8.30;7.32;;;27.00;99.90;;;;;;4990328;28;20129;-92
2022/08/14 10:08:04;;;;;;;8.68;7.60;;;27.00;99.90;;;;;;4991809;28;20066;-91
2022/08/14 10:10:36;;;;;;;9.45;7.47;;;27.10;99.90;;;;;;4992456;28;20050;-94
2022/08/14 10:13:04;;;;;;;8.80;7.32;;;27.10;99.90;;;;;;4990443;28;20125;-94
2022/08/14 10:15:31;;;;;;;8.23;6.97;;;27.10;99.90;;;;;;4988025;28;20034;-93
2022/08/14 10:18:12;;;;;;;10.73;7.30;;;27.10;99.90;;;;;;4975716;28;20098;-94
2022/08/14 10:20:43;;;;;;;;;;;27.20;99.90;;;;;;4983139;28;20412;-92
2022/08/14 10:23:18;;;;;;;;;;;27.10;99.90;;;;;;4976797;28;20295;-94
2022/08/14 10:25:49;;;;;;;10.25;7.60;;;27.10;99.90;;;;;;4990640;28;19975;-95
2022/08/14 10:28:15;;;;;;;8.27;6.80;;;27.20;99.90;;;;;;4990505;28;20089;-94
2022/08/14 10:30:46;;;;;;;9.13;7.35;;;27.30;99.90;;;;;;4973510;28;20166;-95
2022/08/14 10:33:30;;;;;;;9.73;7.32;;;27.30;99.90;;;;;;4974201;28;20077;-96
2022/08/14 10:35:56;;;;;;;9.55;7.40;;;27.30;99.90;;;;;;4985676;28;20046;-94
2022/08/14 10:38:33;;;;;;;10.20;6.80;;;27.40;99.90;;;;;;4981324;28;20092;-89
2022/08/14 10:41:17;;;;;;;8.60;6.80;;;27.40;99.90;;;;;;4988631;28;20137;-95
2022/08/14 10:44:04;;;;;;;7.78;6.65;;;27.40;99.90;;;;;;4990822;28;20039;-94
2022/08/14 10:46:39;;;;;;;9.40;7.47;;;27.40;99.70;;;;;;4992586;28;20089;-93
2022/08/14 10:49:08;;;;;;;10.55;7.80;;;27.40;99.60;;;;;;4991283;28;20391;-93
2022/08/14 10:51:34;;;;;;;9.02;7.43;;;27.50;99.60;;;;;;4972927;28;20170;-93
2022/08/14 10:54:08;;;;;;;9.50;7.57;;;27.50;99.80;;;;;;4989237;28;20082;-91
2022/08/14 10:56:34;;;;;;;10.07;7.30;;;27.50;99.50;;;;;;4977846;28;20046;-93
2022/08/14 10:59:07;;;;;;;8.60;7.25;;;27.60;99.40;;;;;;4983084;28;20047;-94
2022/08/14 11:01:38;;;;;;;9.63;7.20;;;27.60;99.70;;;;;;4988541;28;20047;-94
2022/08/14 11:04:04;;;;;;;9.10;7.82;;;27.70;99.20;;;;;;4960978;28;20080;-91
2022/08/14 11:06:30;;;;;;;8.82;7.43;;;27.70;98.70;;;;;;4949381;28;20057;-94
2022/08/14 11:08:56;;;;;;;8.70;6.90;;;27.70;98.60;;;;;;4959574;28;20038;-95
2022/08/14 11:11:26;;;;;;;8.57;7.20;;;27.80;98.40;;;;;;4977675;28;20072;-92
2022/08/14 11:13:56;;;;;;;9.52;7.13;;;27.80;98.20;;;;;;4943779;28;20054;-93
2022/08/14 11:16:23;;;;;;;9.23;7.63;;;27.90;98.40;;;;;;4947163;28;20053;-91
2022/08/14 11:18:49;;;;;;;9.45;7.40;;;27.90;98.00;;;;;;4941817;28;20565;-88
2022/08/14 11:21:19;;;;;;;10.52;7.60;;;27.90;98.00;;;;;;4943651;28;20153;-93
2022/08/14 11:23:46;;;;;;;8.73;7.20;;;28.10;98.10;;;;;;4946072;28;20121;-90
2022/08/14 11:26:13;;;;;;;8.68;7.68;;;28.10;97.60;;;;;;4943353;28;20066;-95
2022/08/14 11:28:43;;;;;;;9.07;7.50;;;28.10;97.10;;;;;;4948874;28;20097;-94
2022/08/14 11:31:12;;;;;;;9.60;7.85;;;28.10;97.50;;;;;;4928866;28;20050;-93
2022/08/14 11:33:39;;;;;;;9.25;7.93;;;28.10;97.60;;;;;;4933100;28;20042;-94
2022/08/14 11:36:08;;;;;;;8.32;6.50;;;28.20;97.30;;;;;;4926957;28;20057;-94
2022/08/14 11:38:44;;;;;;;8.95;6.72;;;28.20;96.70;;;;;;4948448;28;20445;-94
2022/08/14 11:41:14;;;;;;;8.52;7.20;;;28.30;96.20;;;;;;4928845;28;20133;-94
2022/08/14 11:43:46;;;;;;;10.32;7.43;;;28.40;96.00;;;;;;4928637;28;20047;-90
2022/08/14 11:46:12;;;;;;;8.95;7.57;;;28.50;96.30;;;;;;4940433;28;20117;-93
2022/08/14 11:48:53;;;;;;;9.05;7.18;;;28.60;95.70;;;;;;4945117;28;20368;-91
2022/08/14 11:51:24;;;;;;;8.30;6.50;;;28.70;95.90;;;;;;4946622;28;20602;-91
2022/08/14 11:53:59;;;;;;;8.35;6.13;;;28.70;95.20;;;;;;4941208;28;20042;-92
2022/08/14 11:56:36;;;;;;;9.90;7.18;;;28.80;94.40;;;;;;4936738;28;20046;-93
2022/08/14 11:59:04;;;;;;;8.57;6.15;;;28.80;94.20;;;;;;4930070;28;20051;-93
2022/08/14 12:01:30;;;;;;;8.35;6.40;;;28.80;93.30;;;;;;4932983;28;20038;-93
2022/08/14 12:04:08;;;;;;;8.20;6.50;;;28.90;93.20;;;;;;4919311;28;20766;-92
2022/08/14 12:06:44;;;;;;;8.23;6.30;;;28.90;93.00;;;;;;4944153;28;20042;-93
2022/08/14 12:09:10;;;;;;;9.73;6.90;;;28.90;92.90;;;;;;4920342;28;20100;-92
2022/08/14 12:11:39;;;;;;;9.30;6.65;;;28.90;92.70;;;;;;4945257;28;20042;-92
2022/08/14 12:14:08;;;;;;;7.50;6.13;;;28.90;92.50;;;;;;4947059;28;20734;-92
2022/08/14 12:16:37;;;;;;;8.82;6.93;;;29.00;92.00;;;;;;4925502;28;20059;-92
2022/08/14 12:19:02;;;;;;;8.15;7.00;;;29.00;92.30;;;;;;4949576;28;20042;-94
2022/08/14 12:21:28;;;;;;;8.25;6.57;;;29.10;92.80;;;;;;4926829;28;20050;-93
2022/08/14 12:24:05;;;;;;;7.72;6.13;;;29.30;92.60;;;;;;4941269;28;20121;-96
2022/08/14 12:26:31;;;;;;;8.45;6.00;;;29.30;92.30;;;;;;4926020;28;20057;-89
2022/08/14 12:29:15;;;;;;;8.48;6.10;;;29.20;92.00;;;;;;4949560;28;20044;-92
2022/08/14 12:31:44;;;;;;;8.18;5.88;;;29.30;92.30;;;;;;4949618;28;20403;-91
2022/08/14 12:34:14;;;;;;;9.05;6.00;;;29.40;92.10;;;;;;4954423;28;20046;-92
2022/08/14 12:36:43;;;;;;;8.20;5.72;;;29.50;92.10;;;;;;4952057;28;20062;-93
2022/08/14 12:39:22;;;;;;;7.90;5.70;;;29.60;92.00;;;;;;4946145;28;20053;-92
2022/08/14 12:41:51;;;;;;;10.40;5.90;;;29.70;90.10;;;;;;4945079;28;20053;-91
2022/08/14 12:44:28;;;;;;;6.88;5.25;;;29.70;88.70;;;;;;4950455;28;20092;-90
2022/08/14 12:47:03;;;;;;;10.02;5.22;;;29.80;88.50;;;;;;4941426;28;20039;-91
2022/08/14 12:49:34;;;;;;;7.38;5.57;;;29.80;87.50;;;;;;4949754;28;20042;-93
2022/08/14 12:52:01;;;;;;;9.13;6.25;;;29.80;87.50;;;;;;4948290;28;20031;-94
2022/08/14 12:54:28;;;;;;;9.07;6.07;;;29.70;87.30;;;;;;4948166;28;20042;-93
2022/08/14 12:57:08;;;;;;;8.35;6.13;;;29.70;87.30;;;;;;4929517;28;20047;-93
2022/08/14 12:59:34;;;;;;;10.00;6.00;;;29.80;87.00;;;;;;4935439;28;20050;-94
2022/08/14 13:02:03;;;;;;;8.10;5.53;;;29.80;86.60;;;;;;4929780;28;20048;-93
2022/08/14 13:04:30;;;;;;;9.38;6.07;;;29.80;85.40;;;;;;4952431;28;20046;-93
2022/08/14 13:07:03;;;;;;;8.20;5.82;;;29.80;84.70;;;;;;4930777;28;20511;-92